sensor_id;sensor_type;location;lat;lon;timestamp;pressure;altitude;pressure_sealevel;temperature
79228;BMP280;68658;46.174;11.254;2023-05-07T00:01:55;92711.47;;;13.93
79228;BMP280;68658;46.174;11.254;2023-05-07T00:04:21;92709.09;;;13.90
79228;BMP280;68658;46.174;11.254;2023-05-07T00:06:46;92707.78;;;13.96
79228;BMP280;68658;46.174;11.254;2023-05-07T00:09:15;92702.94;;;14.00
79228;BMP280;68658;46.174;11.254;2023-05-07T00:11:41;92711.59;;;14.01
79228;BMP280;68658;46.174;11.254;2023-05-07T00:14:07;92710.09;;;14.05
79228;BMP280;68658;46.174;11.254;2023-05-07T00:16:32;92710.91;;;14.00
79228;BMP280;68658;46.174;11.254;2023-05-07T00:18:58;92706.28;;;14.01
79228;BMP280;68658;46.174;11.254;2023-05-07T00:21:24;92708.66;;;14.04
79228;BMP280;68658;46.174;11.254;2023-05-07T00:23:52;92705.59;;;14.00
79228;BMP280;68658;46.174;11.254;2023-05-07T00:26:18;92707.03;;;14.01
79228;BMP280;68658;46.174;11.254;2023-05-07T00:28:43;92707.03;;;14.01
79228;BMP280;68658;46.174;11.254;2023-05-07T00:31:09;92699.25;;;14.03
79228;BMP280;68658;46.174;11.254;2023-05-07T00:33:35;92708.47;;;14.02
79228;BMP280;68658;46.174;11.254;2023-05-07T00:36:00;92705.72;;;14.08
79228;BMP280;68658;46.174;11.254;2023-05-07T00:38:27;92704.38;;;14.01
79228;BMP280;68658;46.174;11.254;2023-05-07T00:40:52;92693.03;;;14.01
79228;BMP280;68658;46.174;11.254;2023-05-07T00:43:18;92696.59;;;14.03
79228;BMP280;68658;46.174;11.254;2023-05-07T00:45:43;92700.91;;;14.06
79228;BMP280;68658;46.174;11.254;2023-05-07T00:48:08;92700.00;;;14.04
79228;BMP280;68658;46.174;11.254;2023-05-07T00:50:34;92706.22;;;14.06
79228;BMP280;68658;46.174;11.254;2023-05-07T00:53:00;92705.00;;;14.07
79228;BMP280;68658;46.174;11.254;2023-05-07T00:55:25;92707.44;;;14.05
79228;BMP280;68658;46.174;11.254;2023-05-07T00:57:51;92710.09;;;14.05
79228;BMP280;68658;46.174;11.254;2023-05-07T01:00:17;92705.59;;;14.00
79228;BMP280;68658;46.174;11.254;2023-05-07T01:02:43;92702.72;;;13.98
79228;BMP280;68658;46.174;11.254;2023-05-07T01:05:10;92704.28;;;14.07
79228;BMP280;68658;46.174;11.254;2023-05-07T01:07:38;92701.13;;;14.08
79228;BMP280;68658;46.174;11.254;2023-05-07T01:10:05;92704.09;;;14.05
79228;BMP280;68658;46.174;11.254;2023-05-07T01:12:32;92709.00;;;13.95
79228;BMP280;68658;46.174;11.254;2023-05-07T01:14:58;92698.97;;;13.88
79228;BMP280;68658;46.174;11.254;2023-05-07T01:17:23;92701.84;;;13.90
79228;BMP280;68658;46.174;11.254;2023-05-07T01:19:49;92703.06;;;13.89
79228;BMP280;68658;46.174;11.254;2023-05-07T01:22:29;92701.56;;;13.76
79228;BMP280;68658;46.174;11.254;2023-05-07T01:24:56;92701.56;;;13.76
79228;BMP280;68658;46.174;11.254;2023-05-07T01:27:22;92696.53;;;13.72
79228;BMP280;68658;46.174;11.254;2023-05-07T01:29:47;92692.03;;;13.67
79228;BMP280;68658;46.174;11.254;2023-05-07T01:32:13;92694.19;;;13.69
79228;BMP280;68658;46.174;11.254;2023-05-07T01:34:40;92695.38;;;13.68
79228;BMP280;68658;46.174;11.254;2023-05-07T01:37:05;92700.41;;;13.53
79228;BMP280;68658;46.174;11.254;2023-05-07T01:39:31;92702.41;;;13.47
79228;BMP280;68658;46.174;11.254;2023-05-07T01:41:58;92698.63;;;13.61
79228;BMP280;68658;46.174;11.254;2023-05-07T01:44:25;92705.78;;;13.66
79228;BMP280;68658;46.174;11.254;2023-05-07T01:46:54;92713.25;;;13.67
79228;BMP280;68658;46.174;11.254;2023-05-07T01:49:20;92700.56;;;13.60
79228;BMP280;68658;46.174;11.254;2023-05-07T01:51:46;92712.16;;;13.57
79228;BMP280;68658;46.174;11.254;2023-05-07T01:54:11;92704.94;;;13.58
79228;BMP280;68658;46.174;11.254;2023-05-07T01:56:37;92697.63;;;13.64
79228;BMP280;68658;46.174;11.254;2023-05-07T01:59:02;92702.63;;;13.67
79228;BMP280;68658;46.174;11.254;2023-05-07T02:01:28;92703.84;;;13.66
79228;BMP280;68658;46.174;11.254;2023-05-07T02:03:53;92699.53;;;13.63
79228;BMP280;68658;46.174;11.254;2023-05-07T02:06:19;92705.34;;;13.62
79228;BMP280;68658;46.174;11.254;2023-05-07T02:08:45;92694.53;;;13.60
79228;BMP280;68658;46.174;11.254;2023-05-07T02:11:16;92701.72;;;13.65
79228;BMP280;68658;46.174;11.254;2023-05-07T02:13:42;92696.81;;;13.69
79228;BMP280;68658;46.174;11.254;2023-05-07T02:16:07;92696.75;;;13.74
79228;BMP280;68658;46.174;11.254;2023-05-07T02:18:33;92693.59;;;13.76
79228;BMP280;68658;46.174;11.254;2023-05-07T02:20:58;92693.81;;;13.78
79228;BMP280;68658;46.174;11.254;2023-05-07T02:23:24;92692.22;;;13.69
79228;BMP280;68658;46.174;11.254;2023-05-07T02:25:49;92702.59;;;13.73
79228;BMP280;68658;46.174;11.254;2023-05-07T02:28:15;92695.63;;;13.70
79228;BMP280;68658;46.174;11.254;2023-05-07T02:30:40;92694.13;;;13.74
79228;BMP280;68658;46.174;11.254;2023-05-07T02:33:06;92692.75;;;13.68
79228;BMP280;68658;46.174;11.254;2023-05-07T02:35:33;92684.94;;;13.75
79228;BMP280;68658;46.174;11.254;2023-05-07T02:37:58;92687.88;;;13.72
79228;BMP280;68658;46.174;11.254;2023-05-07T02:40:24;92688.28;;;13.76
79228;BMP280;68658;46.174;11.254;2023-05-07T02:42:49;92685.22;;;13.72
79228;BMP280;68658;46.174;11.254;2023-05-07T02:45:15;92683.16;;;13.65
79228;BMP280;68658;46.174;11.254;2023-05-07T02:47:40;92681.78;;;13.58
79228;BMP280;68658;46.174;11.254;2023-05-07T02:50:06;92689.38;;;13.49
79228;BMP280;68658;46.174;11.254;2023-05-07T02:52:32;92688.34;;;13.52
79228;BMP280;68658;46.174;11.254;2023-05-07T02:54:57;92681.19;;;13.47
79228;BMP280;68658;46.174;11.254;2023-05-07T02:57:22;92680.97;;;13.45
79228;BMP280;68658;46.174;11.254;2023-05-07T02:59:48;92675.53;;;13.37
79228;BMP280;68658;46.174;11.254;2023-05-07T03:02:13;92665.63;;;13.38
79228;BMP280;68658;46.174;11.254;2023-05-07T03:04:39;92663.81;;;13.27
79228;BMP280;68658;46.174;11.254;2023-05-07T03:07:05;92657.94;;;13.16
79228;BMP280;68658;46.174;11.254;2023-05-07T03:09:30;92656.25;;;13.13
79228;BMP280;68658;46.174;11.254;2023-05-07T03:11:56;92656.94;;;12.95
79228;BMP280;68658;46.174;11.254;2023-05-07T03:14:22;92670.41;;;12.97
79228;BMP280;68658;46.174;11.254;2023-05-07T03:16:47;92662.91;;;13.01
79228;BMP280;68658;46.174;11.254;2023-05-07T03:19:12;92672.25;;;12.78
79228;BMP280;68658;46.174;11.254;2023-05-07T03:21:38;92673.13;;;12.86
79228;BMP280;68658;46.174;11.254;2023-05-07T03:24:04;92674.13;;;12.83
79228;BMP280;68658;46.174;11.254;2023-05-07T03:26:29;92667.22;;;12.75
79228;BMP280;68658;46.174;11.254;2023-05-07T03:28:55;92667.50;;;12.71
79228;BMP280;68658;46.174;11.254;2023-05-07T03:31:20;92683.84;;;12.75
79228;BMP280;68658;46.174;11.254;2023-05-07T03:33:53;92678.69;;;12.59
79228;BMP280;68658;46.174;11.254;2023-05-07T03:36:19;92683.31;;;12.53
79228;BMP280;68658;46.174;11.254;2023-05-07T03:38:45;92673.91;;;12.57
79228;BMP280;68658;46.174;11.254;2023-05-07T03:41:10;92680.44;;;12.51
79228;BMP280;68658;46.174;11.254;2023-05-07T03:43:35;92686.59;;;12.64
79228;BMP280;68658;46.174;11.254;2023-05-07T03:46:01;92682.97;;;12.67
79228;BMP280;68658;46.174;11.254;2023-05-07T03:48:26;92692.13;;;12.66
79228;BMP280;68658;46.174;11.254;2023-05-07T03:50:52;92682.97;;;12.67
79228;BMP280;68658;46.174;11.254;2023-05-07T03:53:18;92692.53;;;12.70
79228;BMP280;68658;46.174;11.254;2023-05-07T03:55:43;92698.56;;;12.71
79228;BMP280;68658;46.174;11.254;2023-05-07T03:58:08;92699.28;;;12.71
79228;BMP280;68658;46.174;11.254;2023-05-07T04:00:34;92694.97;;;12.68
79228;BMP280;68658;46.174;11.254;2023-05-07T04:03:03;92693.31;;;12.65
79228;BMP280;68658;46.174;11.254;2023-05-07T04:05:29;92701.25;;;12.65
79228;BMP280;68658;46.174;11.254;2023-05-07T04:07:55;92701.25;;;12.65
79228;BMP280;68658;46.174;11.254;2023-05-07T04:10:21;92701.50;;;12.67
79228;BMP280;68658;46.174;11.254;2023-05-07T04:12:46;92706.03;;;12.72
79228;BMP280;68658;46.174;11.254;2023-05-07T04:15:12;92704.81;;;12.73
79228;BMP280;68658;46.174;11.254;2023-05-07T04:17:37;92701.16;;;12.76
79228;BMP280;68658;46.174;11.254;2023-05-07T04:20:03;92700.19;;;12.79
79228;BMP280;68658;46.174;11.254;2023-05-07T04:22:29;92699.41;;;12.84
79228;BMP280;68658;46.174;11.254;2023-05-07T04:24:55;92709.00;;;12.87
79228;BMP280;68658;46.174;11.254;2023-05-07T04:27:20;92707.56;;;12.92
79228;BMP280;68658;46.174;11.254;2023-05-07T04:29:46;92712.06;;;12.97
79228;BMP280;68658;46.174;11.254;2023-05-07T04:32:13;92715.22;;;12.95
79228;BMP280;68658;46.174;11.254;2023-05-07T04:34:38;92715.34;;;13.08
79228;BMP280;68658;46.174;11.254;2023-05-07T04:37:03;92707.94;;;13.01
79228;BMP280;68658;46.174;11.254;2023-05-07T04:39:29;92712.91;;;13.10
79228;BMP280;68658;46.174;11.254;2023-05-07T04:41:54;92704.69;;;13.13
79228;BMP280;68658;46.174;11.254;2023-05-07T04:44:20;92705.63;;;13.16
79228;BMP280;68658;46.174;11.254;2023-05-07T04:46:45;92697.56;;;13.27
79228;BMP280;68658;46.174;11.254;2023-05-07T04:49:11;92700.66;;;13.31
79228;BMP280;68658;46.174;11.254;2023-05-07T04:51:36;92694.84;;;13.32
79228;BMP280;68658;46.174;11.254;2023-05-07T04:54:03;92698.38;;;13.40
79228;BMP280;68658;46.174;11.254;2023-05-07T04:56:29;92699.25;;;13.24
79228;BMP280;68658;46.174;11.254;2023-05-07T04:58:57;92706.59;;;13.37
79228;BMP280;68658;46.174;11.254;2023-05-07T05:01:23;92715.66;;;13.47
79228;BMP280;68658;46.174;11.254;2023-05-07T05:03:48;92704.81;;;13.45
79228;BMP280;68658;46.174;11.254;2023-05-07T05:06:14;92702.34;;;13.52
79228;BMP280;68658;46.174;11.254;2023-05-07T05:08:39;92700.41;;;13.53
79228;BMP280;68658;46.174;11.254;2023-05-07T05:11:05;92712.44;;;13.54
79228;BMP280;68658;46.174;11.254;2023-05-07T05:13:30;92716.34;;;13.47
79228;BMP280;68658;46.174;11.254;2023-05-07T05:15:56;92714.56;;;13.37
79228;BMP280;68658;46.174;11.254;2023-05-07T05:18:21;92719.28;;;13.44
79228;BMP280;68658;46.174;11.254;2023-05-07T05:20:47;92712.44;;;13.54
79228;BMP280;68658;46.174;11.254;2023-05-07T05:23:12;92711.88;;;13.61
79228;BMP280;68658;46.174;11.254;2023-05-07T05:25:37;92714.41;;;13.72
79228;BMP280;68658;46.174;11.254;2023-05-07T05:28:04;92708.88;;;13.70
79228;BMP280;68658;46.174;11.254;2023-05-07T05:30:30;92710.44;;;13.60
79228;BMP280;68658;46.174;11.254;2023-05-07T05:32:55;92708.28;;;13.58
79228;BMP280;68658;46.174;11.254;2023-05-07T05:35:20;92699.84;;;13.78
79228;BMP280;68658;46.174;11.254;2023-05-07T05:37:46;92695.03;;;13.95
79228;BMP280;68658;46.174;11.254;2023-05-07T05:40:12;92689.66;;;14.00
79228;BMP280;68658;46.174;11.254;2023-05-07T05:42:40;92687.81;;;14.14
79228;BMP280;68658;46.174;11.254;2023-05-07T05:45:06;92686.09;;;14.16
79228;BMP280;68658;46.174;11.254;2023-05-07T05:47:32;92679.41;;;14.28
79228;BMP280;68658;46.174;11.254;2023-05-07T05:49:57;92687.06;;;14.32
79228;BMP280;68658;46.174;11.254;2023-05-07T05:52:23;92686.47;;;14.39
79228;BMP280;68658;46.174;11.254;2023-05-07T05:54:51;92682.31;;;14.43
79228;BMP280;68658;46.174;11.254;2023-05-07T05:57:17;92694.19;;;14.55
79228;BMP280;68658;46.174;11.254;2023-05-07T05:59:43;92691.97;;;14.59
79228;BMP280;68658;46.174;11.254;2023-05-07T06:02:09;92685.88;;;14.46
79228;BMP280;68658;46.174;11.254;2023-05-07T06:04:34;92702.69;;;14.35
79228;BMP280;68658;46.174;11.254;2023-05-07T06:07:00;92704.72;;;14.29
79228;BMP280;68658;46.174;11.254;2023-05-07T06:09:25;92701.81;;;14.46
79228;BMP280;68658;46.174;11.254;2023-05-07T06:11:51;92702.66;;;14.54
79228;BMP280;68658;46.174;11.254;2023-05-07T06:14:16;92709.69;;;14.51
79228;BMP280;68658;46.174;11.254;2023-05-07T06:16:42;92704.53;;;14.40
79228;BMP280;68658;46.174;11.254;2023-05-07T06:19:08;92707.88;;;14.59
79228;BMP280;68658;46.174;11.254;2023-05-07T06:21:33;92708.34;;;14.76
79228;BMP280;68658;46.174;11.254;2023-05-07T06:23:59;92709.59;;;14.88
79228;BMP280;68658;46.174;11.254;2023-05-07T06:26:24;92708.09;;;15.05
79228;BMP280;68658;46.174;11.254;2023-05-07T06:28:50;92716.88;;;15.13
79228;BMP280;68658;46.174;11.254;2023-05-07T06:31:17;92708.81;;;15.19
79228;BMP280;68658;46.174;11.254;2023-05-07T06:33:44;92710.50;;;15.35
79228;BMP280;68658;46.174;11.254;2023-05-07T06:36:09;92716.53;;;15.48
79228;BMP280;68658;46.174;11.254;2023-05-07T06:38:35;92716.84;;;15.57
79228;BMP280;68658;46.174;11.254;2023-05-07T06:41:01;92705.47;;;15.70
79228;BMP280;68658;46.174;11.254;2023-05-07T06:43:26;92706.41;;;15.72
79228;BMP280;68658;46.174;11.254;2023-05-07T06:45:52;92712.13;;;15.63
79228;BMP280;68658;46.174;11.254;2023-05-07T06:48:17;92710.91;;;15.51
79228;BMP280;68658;46.174;11.254;2023-05-07T06:50:43;92710.41;;;15.53
79228;BMP280;68658;46.174;11.254;2023-05-07T06:53:08;92707.22;;;15.54
79228;BMP280;68658;46.174;11.254;2023-05-07T06:55:33;92707.81;;;15.73
79228;BMP280;68658;46.174;11.254;2023-05-07T06:57:59;92706.16;;;15.96
79228;BMP280;68658;46.174;11.254;2023-05-07T07:00:27;92708.47;;;16.13
79228;BMP280;68658;46.174;11.254;2023-05-07T07:02:53;92696.25;;;16.17
79228;BMP280;68658;46.174;11.254;2023-05-07T07:05:19;92692.44;;;16.25
79228;BMP280;68658;46.174;11.254;2023-05-07T07:07:45;92695.84;;;16.26
79228;BMP280;68658;46.174;11.254;2023-05-07T07:10:20;92693.34;;;16.28
79228;BMP280;68658;46.174;11.254;2023-05-07T07:12:46;92685.34;;;16.28
79228;BMP280;68658;46.174;11.254;2023-05-07T07:15:11;92694.91;;;16.36
79228;BMP280;68658;46.174;11.254;2023-05-07T07:17:37;92690.47;;;16.39
79228;BMP280;68658;46.174;11.254;2023-05-07T07:20:02;92685.81;;;16.52
79228;BMP280;68658;46.174;11.254;2023-05-07T07:22:28;92683.75;;;16.58
79228;BMP280;68658;46.174;11.254;2023-05-07T07:24:54;92678.66;;;16.88
79228;BMP280;68658;46.174;11.254;2023-05-07T07:27:20;92683.47;;;17.17
79228;BMP280;68658;46.174;11.254;2023-05-07T07:29:45;92680.03;;;17.30
79228;BMP280;68658;46.174;11.254;2023-05-07T07:32:11;92676.34;;;17.12
79228;BMP280;68658;46.174;11.254;2023-05-07T07:34:36;92676.34;;;17.12
79228;BMP280;68658;46.174;11.254;2023-05-07T07:37:02;92669.25;;;17.15
79228;BMP280;68658;46.174;11.254;2023-05-07T07:39:33;92668.47;;;17.07
79228;BMP280;68658;46.174;11.254;2023-05-07T07:41:59;92668.53;;;17.14
79228;BMP280;68658;46.174;11.254;2023-05-07T07:44:25;92677.91;;;17.28
79228;BMP280;68658;46.174;11.254;2023-05-07T07:46:51;92665.72;;;16.92
79228;BMP280;68658;46.174;11.254;2023-05-07T07:49:17;92662.41;;;16.79
79228;BMP280;68658;46.174;11.254;2023-05-07T07:51:42;92675.56;;;16.77
79228;BMP280;68658;46.174;11.254;2023-05-07T07:54:08;92671.69;;;16.65
79228;BMP280;68658;46.174;11.254;2023-05-07T07:56:34;92670.94;;;16.57
79228;BMP280;68658;46.174;11.254;2023-05-07T07:59:00;92678.47;;;16.45
79228;BMP280;68658;46.174;11.254;2023-05-07T08:01:27;92680.03;;;16.41
79228;BMP280;68658;46.174;11.254;2023-05-07T08:03:52;92671.56;;;16.50
79228;BMP280;68658;46.174;11.254;2023-05-07T08:06:18;92680.88;;;16.56
79228;BMP280;68658;46.174;11.254;2023-05-07T08:08:44;92677.69;;;16.58
79228;BMP280;68658;46.174;11.254;2023-05-07T08:11:09;92672.75;;;16.62
79228;BMP280;68658;46.174;11.254;2023-05-07T08:13:36;92677.47;;;16.76
79228;BMP280;68658;46.174;11.254;2023-05-07T08:16:02;92676.38;;;16.92
79228;BMP280;68658;46.174;11.254;2023-05-07T08:18:28;92683.34;;;16.95
79228;BMP280;68658;46.174;11.254;2023-05-07T08:20:54;92687.00;;;16.85
79228;BMP280;68658;46.174;11.254;2023-05-07T08:23:20;92685.03;;;16.85
79228;BMP280;68658;46.174;11.254;2023-05-07T08:25:46;92685.75;;;16.86
79228;BMP280;68658;46.174;11.254;2023-05-07T08:28:12;92699.59;;;16.84
79228;BMP280;68658;46.174;11.254;2023-05-07T08:30:37;92693.22;;;16.87
79228;BMP280;68658;46.174;11.254;2023-05-07T08:33:08;92701.53;;;17.04
79228;BMP280;68658;46.174;11.254;2023-05-07T08:35:35;92700.25;;;17.25
79228;BMP280;68658;46.174;11.254;2023-05-07T08:38:01;92703.66;;;17.26
79228;BMP280;68658;46.174;11.254;2023-05-07T08:40:26;92699.78;;;17.06
79228;BMP280;68658;46.174;11.254;2023-05-07T08:42:53;92695.22;;;17.14
79228;BMP280;68658;46.174;11.254;2023-05-07T08:45:20;92695.59;;;17.18
79228;BMP280;68658;46.174;11.254;2023-05-07T08:47:51;92704.69;;;17.23
79228;BMP280;68658;46.174;11.254;2023-05-07T08:50:18;92703.53;;;17.31
79228;BMP280;68658;46.174;11.254;2023-05-07T08:52:43;92696.66;;;17.43
79228;BMP280;68658;46.174;11.254;2023-05-07T08:55:09;92691.69;;;17.47
79228;BMP280;68658;46.174;11.254;2023-05-07T08:57:35;92691.97;;;17.64
79228;BMP280;68658;46.174;11.254;2023-05-07T09:00:02;92692.31;;;17.96
79228;BMP280;68658;46.174;11.254;2023-05-07T09:02:28;92692.19;;;18.09
79228;BMP280;68658;46.174;11.254;2023-05-07T09:04:57;92683.84;;;18.20
79228;BMP280;68658;46.174;11.254;2023-05-07T09:07:23;92691.88;;;18.20
79228;BMP280;68658;46.174;11.254;2023-05-07T09:09:50;92688.72;;;18.29
79228;BMP280;68658;46.174;11.254;2023-05-07T09:12:17;92688.34;;;18.25
79228;BMP280;68658;46.174;11.254;2023-05-07T09:14:43;92685.91;;;18.42
79228;BMP280;68658;46.174;11.254;2023-05-07T09:17:10;92685.94;;;18.57
79228;BMP280;68658;46.174;11.254;2023-05-07T09:19:36;92681.13;;;18.55
79228;BMP280;68658;46.174;11.254;2023-05-07T09:22:03;92682.69;;;18.36
79228;BMP280;68658;46.174;11.254;2023-05-07T09:24:30;92685.91;;;18.42
79228;BMP280;68658;46.174;11.254;2023-05-07T09:27:01;92680.94;;;18.61
79228;BMP280;68658;46.174;11.254;2023-05-07T09:29:28;92675.47;;;18.88
79228;BMP280;68658;46.174;11.254;2023-05-07T09:32:06;92671.69;;;19.06
79228;BMP280;68658;46.174;11.254;2023-05-07T09:34:35;92675.97;;;19.02
79228;BMP280;68658;46.174;11.254;2023-05-07T09:37:02;92677.75;;;18.99
79228;BMP280;68658;46.174;11.254;2023-05-07T09:39:42;92678.50;;;19.22
79228;BMP280;68658;46.174;11.254;2023-05-07T09:42:12;92673.09;;;19.52
79228;BMP280;68658;46.174;11.254;2023-05-07T09:44:41;92672.19;;;19.57
79228;BMP280;68658;46.174;11.254;2023-05-07T09:47:07;92673.38;;;19.86
79228;BMP280;68658;46.174;11.254;2023-05-07T09:49:39;92671.22;;;19.92
79228;BMP280;68658;46.174;11.254;2023-05-07T09:52:06;92657.00;;;19.74
79228;BMP280;68658;46.174;11.254;2023-05-07T09:54:41;92657.78;;;20.07
79228;BMP280;68658;46.174;11.254;2023-05-07T09:57:10;92651.78;;;20.30
79228;BMP280;68658;46.174;11.254;2023-05-07T09:59:38;92652.78;;;20.42
79228;BMP280;68658;46.174;11.254;2023-05-07T10:02:04;92648.50;;;20.39
79228;BMP280;68658;46.174;11.254;2023-05-07T10:04:31;92653.31;;;20.09
79228;BMP280;68658;46.174;11.254;2023-05-07T10:06:58;92655.31;;;20.01
79228;BMP280;68658;46.174;11.254;2023-05-07T10:09:26;92650.06;;;20.11
79228;BMP280;68658;46.174;11.254;2023-05-07T10:11:54;92646.22;;;19.89
79228;BMP280;68658;46.174;11.254;2023-05-07T10:14:21;92650.00;;;19.79
79228;BMP280;68658;46.174;11.254;2023-05-07T10:16:47;92645.56;;;19.74
79228;BMP280;68658;46.174;11.254;2023-05-07T10:19:14;92637.75;;;19.61
79228;BMP280;68658;46.174;11.254;2023-05-07T10:21:44;92646.59;;;19.86
79228;BMP280;68658;46.174;11.254;2023-05-07T10:24:21;92638.28;;;20.14
79228;BMP280;68658;46.174;11.254;2023-05-07T10:26:49;92640.09;;;20.04
79228;BMP280;68658;46.174;11.254;2023-05-07T10:35:10;92634.97;;;20.62
79228;BMP280;68658;46.174;11.254;2023-05-07T10:37:37;92642.38;;;20.46
79228;BMP280;68658;46.174;11.254;2023-05-07T10:40:03;92626.00;;;20.91
79228;BMP280;68658;46.174;11.254;2023-05-07T10:42:29;92628.28;;;21.19
79228;BMP280;68658;46.174;11.254;2023-05-07T10:44:55;92628.38;;;20.87
79228;BMP280;68658;46.174;11.254;2023-05-07T10:47:21;92627.94;;;20.98
79228;BMP280;68658;46.174;11.254;2023-05-07T10:52:15;92635.53;;;20.28
79228;BMP280;68658;46.174;11.254;2023-05-07T10:54:43;92626.13;;;20.13
79228;BMP280;68658;46.174;11.254;2023-05-07T10:57:36;92626.31;;;20.15
79228;BMP280;68658;46.174;11.254;2023-05-07T11:05:29;92619.69;;;20.47
79228;BMP280;68658;46.174;11.254;2023-05-07T11:07:56;92614.00;;;20.43
79228;BMP280;68658;46.174;11.254;2023-05-07T11:10:22;92619.78;;;20.32
79228;BMP280;68658;46.174;11.254;2023-05-07T11:12:50;92607.47;;;20.29
79228;BMP280;68658;46.174;11.254;2023-05-07T11:15:37;92602.50;;;20.26
79228;BMP280;68658;46.174;11.254;2023-05-07T11:18:03;92608.97;;;20.47
79228;BMP280;68658;46.174;11.254;2023-05-07T11:20:56;92608.25;;;20.96
79228;BMP280;68658;46.174;11.254;2023-05-07T11:26:07;92592.53;;;21.16
79228;BMP280;68658;46.174;11.254;2023-05-07T11:28:41;92595.91;;;21.17
79228;BMP280;68658;46.174;11.254;2023-05-07T11:31:08;92593.19;;;20.83
79228;BMP280;68658;46.174;11.254;2023-05-07T11:33:35;92590.59;;;20.68
79228;BMP280;68658;46.174;11.254;2023-05-07T11:36:05;92586.94;;;21.39
79228;BMP280;68658;46.174;11.254;2023-05-07T11:38:36;92591.91;;;22.19
79228;BMP280;68658;46.174;11.254;2023-05-07T11:41:03;92586.22;;;21.38
79228;BMP280;68658;46.174;11.254;2023-05-07T11:43:30;92581.16;;;21.42
79228;BMP280;68658;46.174;11.254;2023-05-07T11:46:05;92573.97;;;21.45
79228;BMP280;68658;46.174;11.254;2023-05-07T11:48:32;92579.03;;;21.75
79228;BMP280;68658;46.174;11.254;2023-05-07T11:53:25;92577.25;;;21.77
79228;BMP280;68658;46.174;11.254;2023-05-07T11:55:53;92560.31;;;21.50
79228;BMP280;68658;46.174;11.254;2023-05-07T11:58:25;92564.19;;;21.40
79228;BMP280;68658;46.174;11.254;2023-05-07T12:00:52;92568.13;;;21.22
79228;BMP280;68658;46.174;11.254;2023-05-07T12:03:19;92563.59;;;22.35
79228;BMP280;68658;46.174;11.254;2023-05-07T12:05:45;92565.09;;;23.00
79228;BMP280;68658;46.174;11.254;2023-05-07T12:08:18;92561.72;;;22.64
79228;BMP280;68658;46.174;11.254;2023-05-07T12:10:45;92552.19;;;22.99
79228;BMP280;68658;46.174;11.254;2023-05-07T12:13:16;92540.69;;;22.89
79228;BMP280;68658;46.174;11.254;2023-05-07T12:15:42;92548.28;;;23.19
79228;BMP280;68658;46.174;11.254;2023-05-07T12:18:09;92539.53;;;22.82
79228;BMP280;68658;46.174;11.254;2023-05-07T12:20:36;92546.91;;;22.72
79228;BMP280;68658;46.174;11.254;2023-05-07T12:23:02;92544.25;;;22.46
79228;BMP280;68658;46.174;11.254;2023-05-07T12:25:41;92549.38;;;22.52
79228;BMP280;68658;46.174;11.254;2023-05-07T12:28:15;92526.38;;;22.77
79228;BMP280;68658;46.174;11.254;2023-05-07T12:30:48;92549.06;;;22.48
79228;BMP280;68658;46.174;11.254;2023-05-07T12:33:23;92529.09;;;22.86
79228;BMP280;68658;46.174;11.254;2023-05-07T12:35:53;92542.03;;;23.07
79228;BMP280;68658;46.174;11.254;2023-05-07T12:38:22;92549.59;;;22.82
79228;BMP280;68658;46.174;11.254;2023-05-07T12:40:50;92545.31;;;23.15
79228;BMP280;68658;46.174;11.254;2023-05-07T12:43:28;92547.75;;;23.48
79228;BMP280;68658;46.174;11.254;2023-05-07T12:45:55;92532.00;;;23.54
79228;BMP280;68658;46.174;11.254;2023-05-07T12:48:22;92526.63;;;23.64
79228;BMP280;68658;46.174;11.254;2023-05-07T12:50:53;92522.22;;;23.31
79228;BMP280;68658;46.174;11.254;2023-05-07T12:53:21;92521.94;;;23.45
79228;BMP280;68658;46.174;11.254;2023-05-07T12:55:55;92524.47;;;23.62
79228;BMP280;68658;46.174;11.254;2023-05-07T12:58:29;92515.69;;;23.90
79228;BMP280;68658;46.174;11.254;2023-05-07T13:01:00;92515.69;;;23.90
79228;BMP280;68658;46.174;11.254;2023-05-07T13:03:28;92508.13;;;24.08
79228;BMP280;68658;46.174;11.254;2023-05-07T13:05:56;92510.41;;;24.11
79228;BMP280;68658;46.174;11.254;2023-05-07T13:08:31;92507.31;;;23.86
79228;BMP280;68658;46.174;11.254;2023-05-07T13:10:58;92494.94;;;24.02
79228;BMP280;68658;46.174;11.254;2023-05-07T13:13:24;92496.56;;;23.67
79228;BMP280;68658;46.174;11.254;2023-05-07T13:15:53;92490.56;;;24.37
79228;BMP280;68658;46.174;11.254;2023-05-07T13:18:18;92492.63;;;24.17
79228;BMP280;68658;46.174;11.254;2023-05-07T13:20:44;92494.66;;;24.08
79228;BMP280;68658;46.174;11.254;2023-05-07T13:23:09;92497.91;;;24.16
79228;BMP280;68658;46.174;11.254;2023-05-07T13:25:35;92467.91;;;24.61
79228;BMP280;68658;46.174;11.254;2023-05-07T13:28:01;92481.88;;;24.08
79228;BMP280;68658;46.174;11.254;2023-05-07T13:30:26;92477.16;;;23.40
79228;BMP280;68658;46.174;11.254;2023-05-07T13:32:55;92473.16;;;23.51
79228;BMP280;68658;46.174;11.254;2023-05-07T13:35:21;92481.44;;;24.82
79228;BMP280;68658;46.174;11.254;2023-05-07T13:37:47;92471.94;;;25.43
79228;BMP280;68658;46.174;11.254;2023-05-07T13:40:14;92470.72;;;25.99
79228;BMP280;68658;46.174;11.254;2023-05-07T13:42:40;92470.63;;;26.09
79228;BMP280;68658;46.174;11.254;2023-05-07T13:45:07;92482.31;;;26.91
79228;BMP280;68658;46.174;11.254;2023-05-07T13:47:32;92477.84;;;26.73
79228;BMP280;68658;46.174;11.254;2023-05-07T13:49:58;92468.53;;;27.46
79228;BMP280;68658;46.174;11.254;2023-05-07T13:52:23;92475.63;;;26.69
79228;BMP280;68658;46.174;11.254;2023-05-07T13:54:49;92472.22;;;26.80
79228;BMP280;68658;46.174;11.254;2023-05-07T13:57:14;92470.06;;;27.61
79228;BMP280;68658;46.174;11.254;2023-05-07T13:59:40;92467.31;;;28.35
79228;BMP280;68658;46.174;11.254;2023-05-07T14:02:06;92470.50;;;27.69
79228;BMP280;68658;46.174;11.254;2023-05-07T14:04:31;92464.09;;;27.76
79228;BMP280;68658;46.174;11.254;2023-05-07T14:06:57;92472.56;;;28.58
79228;BMP280;68658;46.174;11.254;2023-05-07T14:09:22;92468.69;;;28.88
79228;BMP280;68658;46.174;11.254;2023-05-07T14:11:48;92476.53;;;29.36
79228;BMP280;68658;46.174;11.254;2023-05-07T14:14:17;92454.16;;;27.44